sensor_id;sensor_type;location;lat;lon;timestamp;pressure;altitude;pressure_sealevel;temperature;humidity
65718;BME280;52445;52.466;-1.016;2023-01-29T00:02:11;101544.44;;;5.96;76.27
65718;BME280;52445;52.466;-1.016;2023-01-29T00:04:40;101544.44;;;5.96;74.78
65718;BME280;52445;52.466;-1.016;2023-01-29T00:07:12;101547.84;;;5.95;75.78
65718;BME280;52445;52.466;-1.016;2023-01-29T00:09:42;101551.25;;;5.94;74.94
65718;BME280;52445;52.466;-1.016;2023-01-29T00:12:11;101551.25;;;5.94;76.34
65718;BME280;52445;52.466;-1.016;2023-01-29T00:14:39;101552.09;;;5.94;76.39
65718;BME280;52445;52.466;-1.016;2023-01-29T00:17:07;101551.25;;;5.94;75.18
65718;BME280;52445;52.466;-1.016;2023-01-29T00:19:35;101550.41;;;5.95;75.98
65718;BME280;52445;52.466;-1.016;2023-01-29T00:22:02;101537.56;;;5.95;74.98
65718;BME280;52445;52.466;-1.016;2023-01-29T00:24:29;101552.09;;;5.94;75.88
65718;BME280;52445;52.466;-1.016;2023-01-29T00:26:55;101552.97;;;5.95;74.84
65718;BME280;52445;52.466;-1.016;2023-01-29T00:29:22;101553.81;;;5.94;76.20
65718;BME280;52445;52.466;-1.016;2023-01-29T00:31:48;101546.09;;;5.94;76.09
65718;BME280;52445;52.466;-1.016;2023-01-29T00:34:15;101540.94;;;5.94;74.98
65718;BME280;52445;52.466;-1.016;2023-01-29T00:36:42;101546.09;;;5.94;76.34
65718;BME280;52445;52.466;-1.016;2023-01-29T00:39:11;101540.06;;;5.93;74.93
65718;BME280;52445;52.466;-1.016;2023-01-29T00:41:37;101547.72;;;5.91;75.81
65718;BME280;52445;52.466;-1.016;2023-01-29T00:44:24;101550.34;;;5.93;75.24
65718;BME280;52445;52.466;-1.016;2023-01-29T00:47:10;101545.97;;;5.90;76.24
65718;BME280;52445;52.466;-1.016;2023-01-29T00:49:59;101545.06;;;5.90;74.85
65718;BME280;52445;52.466;-1.016;2023-01-29T00:52:26;101550.22;;;5.90;75.60
65718;BME280;52445;52.466;-1.016;2023-01-29T00:54:56;101558.75;;;5.89;75.46
65718;BME280;52445;52.466;-1.016;2023-01-29T00:57:25;101557.88;;;5.88;75.04
65718;BME280;52445;52.466;-1.016;2023-01-29T00:59:53;101541.50;;;5.86;75.41
65718;BME280;52445;52.466;-1.016;2023-01-29T01:02:20;101546.53;;;5.83;75.89
65718;BME280;52445;52.466;-1.016;2023-01-29T01:05:08;101547.34;;;5.82;75.48
65718;BME280;52445;52.466;-1.016;2023-01-29T01:07:39;101545.56;;;5.81;75.59
65718;BME280;52445;52.466;-1.016;2023-01-29T01:10:11;101549.91;;;5.82;74.30
65718;BME280;52445;52.466;-1.016;2023-01-29T01:12:56;101542.06;;;5.79;75.83
65718;BME280;52445;52.466;-1.016;2023-01-29T01:15:26;101530.09;;;5.79;75.93
65718;BME280;52445;52.466;-1.016;2023-01-29T01:17:56;101530.91;;;5.78;74.27
65718;BME280;52445;52.466;-1.016;2023-01-29T01:20:25;101530.75;;;5.75;74.78
65718;BME280;52445;52.466;-1.016;2023-01-29T01:22:54;101524.75;;;5.75;75.01
65718;BME280;52445;52.466;-1.016;2023-01-29T01:25:24;101530.59;;;5.71;75.37
65718;BME280;52445;52.466;-1.016;2023-01-29T01:27:55;101526.25;;;5.70;75.42
65718;BME280;52445;52.466;-1.016;2023-01-29T01:30:24;101519.34;;;5.69;75.40
65718;BME280;52445;52.466;-1.016;2023-01-29T01:32:53;101515.88;;;5.66;75.52
65718;BME280;52445;52.466;-1.016;2023-01-29T01:35:21;101513.22;;;5.65;74.43
65718;BME280;52445;52.466;-1.016;2023-01-29T01:37:50;101514.09;;;5.65;75.68
65718;BME280;52445;52.466;-1.016;2023-01-29T01:40:21;101509.63;;;5.61;74.62
65718;BME280;52445;52.466;-1.016;2023-01-29T01:42:52;101517.34;;;5.61;75.16
65718;BME280;52445;52.466;-1.016;2023-01-29T01:45:32;101511.97;;;5.55;74.98
65718;BME280;52445;52.466;-1.016;2023-01-29T01:53:23;101509.47;;;5.57;74.95
65718;BME280;52445;52.466;-1.016;2023-01-29T01:55:57;101512.91;;;5.57;74.67
65718;BME280;52445;52.466;-1.016;2023-01-29T01:58:29;101514.59;;;5.57;74.78
65718;BME280;52445;52.466;-1.016;2023-01-29T02:00:59;101511.97;;;5.55;74.81
65718;BME280;52445;52.466;-1.016;2023-01-29T02:03:27;101510.19;;;5.54;74.86
65718;BME280;52445;52.466;-1.016;2023-01-29T02:06:16;101496.06;;;5.44;75.14
65718;BME280;52445;52.466;-1.016;2023-01-29T02:09:08;101496.28;;;5.49;74.85
65718;BME280;52445;52.466;-1.016;2023-01-29T02:11:56;101486.00;;;5.49;75.59
65718;BME280;52445;52.466;-1.016;2023-01-29T02:14:23;101489.53;;;5.51;76.03
65718;BME280;52445;52.466;-1.016;2023-01-29T02:16:50;101476.63;;;5.49;75.86
65718;BME280;52445;52.466;-1.016;2023-01-29T02:19:30;101462.94;;;5.50;75.85
65718;BME280;52445;52.466;-1.016;2023-01-29T02:22:05;101463.44;;;5.42;74.92
65718;BME280;52445;52.466;-1.016;2023-01-29T02:24:58;101462.66;;;5.44;75.75
65718;BME280;52445;52.466;-1.016;2023-01-29T02:30:37;101466.97;;;5.44;76.26
65718;BME280;52445;52.466;-1.016;2023-01-29T02:38:41;101444.66;;;5.43;74.98
65718;BME280;52445;52.466;-1.016;2023-01-29T02:43:57;101446.13;;;5.37;75.75
65718;BME280;52445;52.466;-1.016;2023-01-29T02:49:22;101448.53;;;5.33;75.76
65718;BME280;52445;52.466;-1.016;2023-01-29T02:51:58;101452.78;;;5.32;75.44
65718;BME280;52445;52.466;-1.016;2023-01-29T02:54:40;101451.03;;;5.31;76.00
65718;BME280;52445;52.466;-1.016;2023-01-29T02:57:16;101439.72;;;5.27;76.57
65718;BME280;52445;52.466;-1.016;2023-01-29T03:00:04;101427.44;;;5.20;76.35
65718;BME280;52445;52.466;-1.016;2023-01-29T03:02:40;101432.72;;;5.23;75.55
65718;BME280;52445;52.466;-1.016;2023-01-29T03:05:13;101419.88;;;5.23;75.85
65718;BME280;52445;52.466;-1.016;2023-01-29T03:07:49;101421.56;;;5.23;76.28
65718;BME280;52445;52.466;-1.016;2023-01-29T03:10:22;101419.81;;;5.22;75.82
65718;BME280;52445;52.466;-1.016;2023-01-29T03:12:54;101415.56;;;5.22;76.07
65718;BME280;52445;52.466;-1.016;2023-01-29T03:15:28;101414.66;;;5.22;76.28
65718;BME280;52445;52.466;-1.016;2023-01-29T03:18:01;101402.66;;;5.21;75.50
65718;BME280;52445;52.466;-1.016;2023-01-29T03:20:35;101411.19;;;5.20;76.49
65718;BME280;52445;52.466;-1.016;2023-01-29T03:23:09;101407.66;;;5.18;75.88
65718;BME280;52445;52.466;-1.016;2023-01-29T03:25:40;101399.88;;;5.16;75.88
65718;BME280;52445;52.466;-1.016;2023-01-29T03:28:29;101403.06;;;5.10;75.64
65718;BME280;52445;52.466;-1.016;2023-01-29T03:31:16;101397.75;;;5.06;75.33
65718;BME280;52445;52.466;-1.016;2023-01-29T03:34:11;101382.97;;;5.00;75.47
65718;BME280;52445;52.466;-1.016;2023-01-29T03:36:48;101383.69;;;4.97;76.17
65718;BME280;52445;52.466;-1.016;2023-01-29T03:39:16;101385.22;;;4.92;75.35
65718;BME280;52445;52.466;-1.016;2023-01-29T03:41:47;101400.47;;;4.89;75.58
65718;BME280;52445;52.466;-1.016;2023-01-29T03:47:00;101387.47;;;4.84;76.17
65718;BME280;52445;52.466;-1.016;2023-01-29T03:49:34;101382.88;;;4.77;76.28
65718;BME280;52445;52.466;-1.016;2023-01-29T03:52:14;101383.81;;;4.79;75.83
65718;BME280;52445;52.466;-1.016;2023-01-29T03:55:05;101390.59;;;4.77;76.11
65718;BME280;52445;52.466;-1.016;2023-01-29T03:57:41;101385.56;;;4.80;75.37
65718;BME280;52445;52.466;-1.016;2023-01-29T04:00:22;101382.19;;;4.81;75.41
65718;BME280;52445;52.466;-1.016;2023-01-29T04:03:04;101386.50;;;4.82;76.10
65718;BME280;52445;52.466;-1.016;2023-01-29T04:05:53;101385.56;;;4.80;75.96
65718;BME280;52445;52.466;-1.016;2023-01-29T04:08:27;101387.47;;;4.84;75.52
65718;BME280;52445;52.466;-1.016;2023-01-29T04:10:58;101379.81;;;4.86;76.01
65718;BME280;52445;52.466;-1.016;2023-01-29T04:13:30;101375.56;;;4.86;75.68
65718;BME280;52445;52.466;-1.016;2023-01-29T04:16:00;101378.19;;;4.88;75.19
65718;BME280;52445;52.466;-1.016;2023-01-29T04:18:30;101359.25;;;4.86;75.23
65718;BME280;52445;52.466;-1.016;2023-01-29T04:20:57;101363.53;;;4.85;75.86
65718;BME280;52445;52.466;-1.016;2023-01-29T04:23:26;101360.16;;;4.86;75.50
65718;BME280;52445;52.466;-1.016;2023-01-29T04:26:28;101358.28;;;4.82;75.43
65718;BME280;52445;52.466;-1.016;2023-01-29T04:35:15;101349.50;;;4.77;75.96
65718;BME280;52445;52.466;-1.016;2023-01-29T04:40:35;101341.91;;;4.80;76.17
65718;BME280;52445;52.466;-1.016;2023-01-29T04:43:11;101337.72;;;4.82;75.90
65718;BME280;52445;52.466;-1.016;2023-01-29T04:54:20;101326.56;;;4.82;75.87
65718;BME280;52445;52.466;-1.016;2023-01-29T04:59:30;101317.34;;;4.85;76.09
65718;BME280;52445;52.466;-1.016;2023-01-29T05:02:00;101328.41;;;4.84;76.16
65718;BME280;52445;52.466;-1.016;2023-01-29T05:04:30;101324.97;;;4.84;75.75
65718;BME280;52445;52.466;-1.016;2023-01-29T05:07:02;101310.38;;;4.83;76.11
65718;BME280;52445;52.466;-1.016;2023-01-29T05:09:30;101305.19;;;4.81;75.38
65718;BME280;52445;52.466;-1.016;2023-01-29T05:11:59;101295.78;;;4.82;76.20
65718;BME280;52445;52.466;-1.016;2023-01-29T05:14:27;101291.38;;;4.79;75.71
65718;BME280;52445;52.466;-1.016;2023-01-29T05:16:57;101282.88;;;4.80;76.46
65718;BME280;52445;52.466;-1.016;2023-01-29T05:19:27;101291.38;;;4.79;76.30
65718;BME280;52445;52.466;-1.016;2023-01-29T05:21:53;101282.00;;;4.80;76.26
65718;BME280;52445;52.466;-1.016;2023-01-29T05:24:22;101276.00;;;4.79;75.90
65718;BME280;52445;52.466;-1.016;2023-01-29T05:26:51;101281.94;;;4.78;76.65
65718;BME280;52445;52.466;-1.016;2023-01-29T05:29:42;101275.06;;;4.77;75.84
65718;BME280;52445;52.466;-1.016;2023-01-29T05:32:11;101275.06;;;4.77;75.79
65718;BME280;52445;52.466;-1.016;2023-01-29T05:34:37;101273.28;;;4.76;76.41
65718;BME280;52445;52.466;-1.016;2023-01-29T05:37:04;101267.38;;;4.77;76.76
65718;BME280;52445;52.466;-1.016;2023-01-29T05:39:31;101263.91;;;4.76;76.78
65718;BME280;52445;52.466;-1.016;2023-01-29T05:41:58;101254.47;;;4.75;76.71
65718;BME280;52445;52.466;-1.016;2023-01-29T05:44:25;101250.19;;;4.76;76.71
65718;BME280;52445;52.466;-1.016;2023-01-29T05:46:52;101245.06;;;4.76;75.89
65718;BME280;52445;52.466;-1.016;2023-01-29T05:49:19;101247.69;;;4.78;75.83
65718;BME280;52445;52.466;-1.016;2023-01-29T05:51:46;101244.28;;;4.77;76.83
65718;BME280;52445;52.466;-1.016;2023-01-29T05:54:13;101252.81;;;4.78;76.78
65718;BME280;52445;52.466;-1.016;2023-01-29T05:56:39;101251.97;;;4.77;75.51
65718;BME280;52445;52.466;-1.016;2023-01-29T05:59:06;101254.59;;;4.79;76.56
65718;BME280;52445;52.466;-1.016;2023-01-29T06:01:33;101246.69;;;4.74;76.39
65718;BME280;52445;52.466;-1.016;2023-01-29T06:04:00;101251.06;;;4.76;75.96
65718;BME280;52445;52.466;-1.016;2023-01-29T06:06:27;101245.06;;;4.76;76.15
65718;BME280;52445;52.466;-1.016;2023-01-29T06:08:54;101239.13;;;4.77;76.13
65718;BME280;52445;52.466;-1.016;2023-01-29T06:11:21;101250.25;;;4.78;76.87
65718;BME280;52445;52.466;-1.016;2023-01-29T06:13:48;101235.75;;;4.78;76.17
65718;BME280;52445;52.466;-1.016;2023-01-29T06:16:16;101236.56;;;4.77;76.94
65718;BME280;52445;52.466;-1.016;2023-01-29T06:18:42;101236.56;;;4.77;76.60
65718;BME280;52445;52.466;-1.016;2023-01-29T06:21:12;101239.13;;;4.77;76.53
65718;BME280;52445;52.466;-1.016;2023-01-29T06:23:39;101245.19;;;4.79;76.50
65718;BME280;52445;52.466;-1.016;2023-01-29T06:26:09;101238.44;;;4.81;76.43
65718;BME280;52445;52.466;-1.016;2023-01-29T06:28:37;101236.00;;;4.84;76.68
65718;BME280;52445;52.466;-1.016;2023-01-29T06:31:04;101223.16;;;4.84;77.36
65718;BME280;52445;52.466;-1.016;2023-01-29T06:33:52;101228.31;;;4.84;76.51
65718;BME280;52445;52.466;-1.016;2023-01-29T06:36:19;101223.16;;;4.84;76.49
65718;BME280;52445;52.466;-1.016;2023-01-29T06:38:45;101218.03;;;4.84;77.43
65718;BME280;52445;52.466;-1.016;2023-01-29T06:41:16;101217.22;;;4.85;77.17
65718;BME280;52445;52.466;-1.016;2023-01-29T06:43:44;101210.34;;;4.84;77.01
65718;BME280;52445;52.466;-1.016;2023-01-29T06:46:11;101219.78;;;4.85;76.53
65718;BME280;52445;52.466;-1.016;2023-01-29T06:48:37;101219.72;;;4.84;77.15
65718;BME280;52445;52.466;-1.016;2023-01-29T06:51:06;101207.78;;;4.86;76.89
65718;BME280;52445;52.466;-1.016;2023-01-29T06:53:34;101212.06;;;4.85;77.32
65718;BME280;52445;52.466;-1.016;2023-01-29T06:56:02;101205.19;;;4.84;76.98
65718;BME280;52445;52.466;-1.016;2023-01-29T06:58:29;101193.16;;;4.83;77.78
65718;BME280;52445;52.466;-1.016;2023-01-29T07:01:05;101186.28;;;4.82;76.75
65718;BME280;52445;52.466;-1.016;2023-01-29T07:03:35;101185.38;;;4.82;76.87
65718;BME280;52445;52.466;-1.016;2023-01-29T07:06:02;101193.09;;;4.82;77.86
65718;BME280;52445;52.466;-1.016;2023-01-29T07:08:29;101182.75;;;4.80;77.21
65718;BME280;52445;52.466;-1.016;2023-01-29T07:10:59;101184.47;;;4.80;77.58
65718;BME280;52445;52.466;-1.016;2023-01-29T07:13:26;101181.00;;;4.79;77.05
65718;BME280;52445;52.466;-1.016;2023-01-29T07:15:53;101193.00;;;4.79;77.50
65718;BME280;52445;52.466;-1.016;2023-01-29T07:18:19;101186.09;;;4.78;77.23
65718;BME280;52445;52.466;-1.016;2023-01-29T07:20:46;101197.25;;;4.78;77.81
65718;BME280;52445;52.466;-1.016;2023-01-29T07:23:13;101188.72;;;4.79;77.21
65718;BME280;52445;52.466;-1.016;2023-01-29T07:25:40;101188.72;;;4.79;77.93
65718;BME280;52445;52.466;-1.016;2023-01-29T07:28:07;101183.59;;;4.79;77.35
65718;BME280;52445;52.466;-1.016;2023-01-29T07:30:34;101187.09;;;4.81;77.73
65718;BME280;52445;52.466;-1.016;2023-01-29T07:33:05;101183.84;;;4.85;78.14
65718;BME280;52445;52.466;-1.016;2023-01-29T07:35:42;101187.09;;;4.81;77.46
65718;BME280;52445;52.466;-1.016;2023-01-29T07:38:09;101190.59;;;4.83;77.27
65718;BME280;52445;52.466;-1.016;2023-01-29T07:40:36;101191.47;;;4.84;77.86
65718;BME280;52445;52.466;-1.016;2023-01-29T07:43:05;101183.00;;;4.86;78.06
65718;BME280;52445;52.466;-1.016;2023-01-29T07:45:34;101187.31;;;4.87;78.25
65718;BME280;52445;52.466;-1.016;2023-01-29T07:48:02;101180.50;;;4.88;77.97
65718;BME280;52445;52.466;-1.016;2023-01-29T07:50:31;101188.34;;;4.91;77.50
65718;BME280;52445;52.466;-1.016;2023-01-29T07:52:59;101186.59;;;4.90;78.19
65718;BME280;52445;52.466;-1.016;2023-01-29T07:55:26;101183.25;;;4.93;78.21
65718;BME280;52445;52.466;-1.016;2023-01-29T07:57:58;101184.06;;;4.92;77.99
65718;BME280;52445;52.466;-1.016;2023-01-29T08:00:25;101181.53;;;4.93;78.30
65718;BME280;52445;52.466;-1.016;2023-01-29T08:02:52;101177.31;;;4.94;77.32
65718;BME280;52445;52.466;-1.016;2023-01-29T08:05:19;101172.28;;;4.97;78.22
65718;BME280;52445;52.466;-1.016;2023-01-29T08:07:52;101170.53;;;4.96;78.48
65718;BME280;52445;52.466;-1.016;2023-01-29T08:10:32;101172.28;;;4.97;78.28
65718;BME280;52445;52.466;-1.016;2023-01-29T08:13:00;101174.03;;;4.98;77.96
65718;BME280;52445;52.466;-1.016;2023-01-29T08:15:28;101177.56;;;5.00;77.54
65718;BME280;52445;52.466;-1.016;2023-01-29T08:17:55;101179.28;;;5.01;78.06
65718;BME280;52445;52.466;-1.016;2023-01-29T08:20:42;101186.16;;;5.02;78.61
65718;BME280;52445;52.466;-1.016;2023-01-29T08:23:14;101181.16;;;5.05;78.28
65718;BME280;52445;52.466;-1.016;2023-01-29T08:25:40;101180.34;;;5.06;77.91
65718;BME280;52445;52.466;-1.016;2023-01-29T08:28:07;101174.38;;;5.07;78.24
65718;BME280;52445;52.466;-1.016;2023-01-29T08:30:35;101170.19;;;5.09;77.71
65718;BME280;52445;52.466;-1.016;2023-01-29T08:33:03;101169.34;;;5.10;78.42
65718;BME280;52445;52.466;-1.016;2023-01-29T08:35:30;101174.63;;;5.13;77.87
65718;BME280;52445;52.466;-1.016;2023-01-29T08:38:00;101169.47;;;5.13;78.72
65718;BME280;52445;52.466;-1.016;2023-01-29T08:40:30;101168.84;;;5.19;78.09
65718;BME280;52445;52.466;-1.016;2023-01-29T08:43:00;101164.66;;;5.23;78.26
65718;BME280;52445;52.466;-1.016;2023-01-29T08:45:32;101156.19;;;5.24;78.78
65718;BME280;52445;52.466;-1.016;2023-01-29T08:48:00;101169.13;;;5.27;78.14
65718;BME280;52445;52.466;-1.016;2023-01-29T08:50:26;101169.22;;;5.30;77.39
65718;BME280;52445;52.466;-1.016;2023-01-29T08:52:57;101157.31;;;5.32;78.74
65718;BME280;52445;52.466;-1.016;2023-01-29T08:55:25;101158.34;;;5.37;78.84
65718;BME280;52445;52.466;-1.016;2023-01-29T08:57:52;101157.59;;;5.40;78.68
65718;BME280;52445;52.466;-1.016;2023-01-29T09:00:20;101158.59;;;5.44;78.99
65718;BME280;52445;52.466;-1.016;2023-01-29T09:02:47;101163.72;;;5.44;77.75
65718;BME280;52445;52.466;-1.016;2023-01-29T09:05:13;101160.47;;;5.48;77.85
65718;BME280;52445;52.466;-1.016;2023-01-29T09:07:41;101164.00;;;5.51;78.56
65718;BME280;52445;52.466;-1.016;2023-01-29T09:10:08;101168.41;;;5.56;78.16
65718;BME280;52445;52.466;-1.016;2023-01-29T09:12:35;101166.75;;;5.56;78.02
65718;BME280;52445;52.466;-1.016;2023-01-29T09:15:02;101173.75;;;5.60;77.78
65718;BME280;52445;52.466;-1.016;2023-01-29T09:17:29;101171.28;;;5.63;78.25
65718;BME280;52445;52.466;-1.016;2023-01-29T09:19:56;101171.41;;;5.66;78.75
65718;BME280;52445;52.466;-1.016;2023-01-29T09:22:24;101172.38;;;5.70;78.82
65718;BME280;52445;52.466;-1.016;2023-01-29T09:24:50;101173.38;;;5.74;77.76
65718;BME280;52445;52.466;-1.016;2023-01-29T09:27:17;101173.38;;;5.74;77.68
65718;BME280;52445;52.466;-1.016;2023-01-29T09:29:44;101175.97;;;5.75;78.90
65718;BME280;52445;52.466;-1.016;2023-01-29T09:32:11;101179.47;;;5.77;78.13
65718;BME280;52445;52.466;-1.016;2023-01-29T09:34:38;101174.47;;;5.81;78.95
65718;BME280;52445;52.466;-1.016;2023-01-29T09:37:05;101175.31;;;5.81;78.51
65718;BME280;52445;52.466;-1.016;2023-01-29T09:39:32;101176.31;;;5.85;78.65
65718;BME280;52445;52.466;-1.016;2023-01-29T09:47:18;101178.69;;;6.29;78.04
65718;BME280;52445;52.466;-1.016;2023-01-29T09:49:49;101170.41;;;6.12;77.99
65718;BME280;52445;52.466;-1.016;2023-01-29T09:52:22;101157.38;;;6.07;79.57
65718;BME280;52445;52.466;-1.016;2023-01-29T09:57:38;101153.97;;;6.08;79.33
65718;BME280;52445;52.466;-1.016;2023-01-29T10:00:12;101145.09;;;6.00;79.85
65718;BME280;52445;52.466;-1.016;2023-01-29T10:25:48;101136.59;;;6.54;79.50
65718;BME280;52445;52.466;-1.016;2023-01-29T10:28:19;101133.34;;;6.60;79.39
65718;BME280;52445;52.466;-1.016;2023-01-29T10:30:48;101127.34;;;6.61;77.98
65718;BME280;52445;52.466;-1.016;2023-01-29T10:33:21;101118.91;;;6.65;78.50
65718;BME280;52445;52.466;-1.016;2023-01-29T10:35:54;101113.00;;;6.69;78.99
65718;BME280;52445;52.466;-1.016;2023-01-29T10:47:05;101101.44;;;6.84;78.00
65718;BME280;52445;52.466;-1.016;2023-01-29T11:00:53;101089.75;;;6.96;77.29
65718;BME280;52445;52.466;-1.016;2023-01-29T11:03:26;101089.84;;;6.99;77.28
65718;BME280;52445;52.466;-1.016;2023-01-29T11:08:37;101082.22;;;7.03;76.83
65718;BME280;52445;52.466;-1.016;2023-01-29T11:11:10;101081.53;;;7.09;78.25
65718;BME280;52445;52.466;-1.016;2023-01-29T11:13:43;101075.63;;;7.13;77.32
65718;BME280;52445;52.466;-1.016;2023-01-29T11:16:13;101080.13;;;7.20;76.88
65718;BME280;52445;52.466;-1.016;2023-01-29T11:18:51;101077.69;;;7.25;77.30
65718;BME280;52445;52.466;-1.016;2023-01-29T11:21:18;101070.09;;;7.30;77.24
65718;BME280;52445;52.466;-1.016;2023-01-29T11:23:45;101059.75;;;7.28;76.64
65718;BME280;52445;52.466;-1.016;2023-01-29T11:26:17;101071.66;;;7.25;77.76
65718;BME280;52445;52.466;-1.016;2023-01-29T11:28:46;101056.13;;;7.22;77.13
65718;BME280;52445;52.466;-1.016;2023-01-29T11:34:12;101054.44;;;7.24;77.17
65718;BME280;52445;52.466;-1.016;2023-01-29T11:36:42;101044.47;;;7.36;76.92
65718;BME280;52445;52.466;-1.016;2023-01-29T11:42:00;101036.47;;;7.59;77.47
65718;BME280;52445;52.466;-1.016;2023-01-29T11:49:51;101000.31;;;7.93;76.51
65718;BME280;52445;52.466;-1.016;2023-01-29T11:52:21;101001.34;;;8.00;76.27
65718;BME280;52445;52.466;-1.016;2023-01-29T11:54:53;100989.41;;;8.05;76.63
65718;BME280;52445;52.466;-1.016;2023-01-29T11:57:25;100986.22;;;8.15;76.13
65718;BME280;52445;52.466;-1.016;2023-01-29T11:59:54;100981.16;;;8.21;75.84
65718;BME280;52445;52.466;-1.016;2023-01-29T12:02:33;100970.03;;;8.24;75.87
65718;BME280;52445;52.466;-1.016;2023-01-29T12:05:05;100953.88;;;8.33;75.18
65718;BME280;52445;52.466;-1.016;2023-01-29T12:07:41;100942.81;;;8.39;75.03
65718;BME280;52445;52.466;-1.016;2023-01-29T12:15:47;100937.81;;;8.46;74.83
65718;BME280;52445;52.466;-1.016;2023-01-29T12:21:09;100933.47;;;8.45;74.22
65718;BME280;52445;52.466;-1.016;2023-01-29T12:24:03;100928.31;;;8.45;74.64
65718;BME280;52445;52.466;-1.016;2023-01-29T12:26:36;100931.09;;;8.53;73.89
65718;BME280;52445;52.466;-1.016;2023-01-29T12:29:30;100923.47;;;8.61;73.88
65718;BME280;52445;52.466;-1.016;2023-01-29T12:32:06;100929.78;;;8.76;74.20
65718;BME280;52445;52.466;-1.016;2023-01-29T12:37:43;100915.97;;;9.21;72.80
65718;BME280;52445;52.466;-1.016;2023-01-29T12:40:13;100914.22;;;9.20;73.12
65718;BME280;52445;52.466;-1.016;2023-01-29T12:42:45;100910.00;;;9.25;73.00
65718;BME280;52445;52.466;-1.016;2023-01-29T12:45:22;100903.16;;;9.29;72.43
65718;BME280;52445;52.466;-1.016;2023-01-29T12:47:53;100905.75;;;9.28;71.87
65718;BME280;52445;52.466;-1.016;2023-01-29T12:50:27;100907.41;;;9.25;71.85
65718;BME280;52445;52.466;-1.016;2023-01-29T12:55:42;100905.31;;;9.03;70.31
65718;BME280;52445;52.466;-1.016;2023-01-29T12:58:14;100913.91;;;9.02;70.91
65718;BME280;52445;52.466;-1.016;2023-01-29T13:00:44;100905.31;;;9.03;71.47
65718;BME280;52445;52.466;-1.016;2023-01-29T13:08:34;100893.41;;;9.12;70.85
65718;BME280;52445;52.466;-1.016;2023-01-29T13:11:07;100889.09;;;9.11;70.65
65718;BME280;52445;52.466;-1.016;2023-01-29T13:13:43;100881.38;;;9.13;70.26
65718;BME280;52445;52.466;-1.016;2023-01-29T13:16:24;100888.28;;;9.14;70.10
65718;BME280;52445;52.466;-1.016;2023-01-29T13:18:55;100886.63;;;9.19;70.47
65718;BME280;52445;52.466;-1.016;2023-01-29T13:21:26;100885.81;;;9.22;70.23
65718;BME280;52445;52.466;-1.016;2023-01-29T13:23:58;100871.06;;;9.15;70.28
65718;BME280;52445;52.466;-1.016;2023-01-29T13:26:27;100869.31;;;9.15;69.80
65718;BME280;52445;52.466;-1.016;2023-01-29T13:28:54;100869.25;;;9.09;68.72
65718;BME280;52445;52.466;-1.016;2023-01-29T13:31:32;100867.34;;;8.98;69.16
65718;BME280;52445;52.466;-1.016;2023-01-29T13:34:24;100860.50;;;9.00;68.74
65718;BME280;52445;52.466;-1.016;2023-01-29T13:36:56;100846.78;;;9.05;68.96
65718;BME280;52445;52.466;-1.016;2023-01-29T13:39:32;100845.78;;;8.96;68.98
65718;BME280;52445;52.466;-1.016;2023-01-29T13:42:01;100844.88;;;8.94;69.60
65718;BME280;52445;52.466;-1.016;2023-01-29T13:44:34;100829.38;;;8.94;69.40
65718;BME280;52445;52.466;-1.016;2023-01-29T13:47:05;100836.19;;;8.89;69.38
65718;BME280;52445;52.466;-1.016;2023-01-29T13:49:37;100819.84;;;8.90;69.72
65718;BME280;52445;52.466;-1.016;2023-01-29T13:55:18;100815.56;;;8.91;69.34
65718;BME280;52445;52.466;-1.016;2023-01-29T13:57:48;100813.81;;;8.91;69.65
65718;BME280;52445;52.466;-1.016;2023-01-29T14:11:34;100809.84;;;9.12;68.83
65718;BME280;52445;52.466;-1.016;2023-01-29T14:14:48;100810.63;;;9.06;68.57
65718;BME280;52445;52.466;-1.016;2023-01-29T14:17:07;100808.91;;;9.07;68.99
65718;BME280;52445;52.466;-1.016;2023-01-29T14:19:34;100795.06;;;9.03;68.64
65718;BME280;52445;52.466;-1.016;2023-01-29T14:22:00;100786.38;;;8.96;68.94
65718;BME280;52445;52.466;-1.016;2023-01-29T14:24:29;100786.34;;;8.98;68.82
65718;BME280;52445;52.466;-1.016;2023-01-29T14:26:56;100787.25;;;8.98;68.94
65718;BME280;52445;52.466;-1.016;2023-01-29T14:29:25;100789.88;;;9.02;69.27
65718;BME280;52445;52.466;-1.016;2023-01-29T14:32:20;100786.34;;;8.95;69.04
65718;BME280;52445;52.466;-1.016;2023-01-29T14:34:50;100787.91;;;8.88;69.08
65718;BME280;52445;52.466;-1.016;2023-01-29T14:37:28;100774.25;;;8.95;69.19
65718;BME280;52445;52.466;-1.016;2023-01-29T14:39:58;100779.44;;;8.95;68.93
65718;BME280;52445;52.466;-1.016;2023-01-29T14:42:35;100770.84;;;8.96;69.07
65718;BME280;52445;52.466;-1.016;2023-01-29T14:53:13;100764.09;;;9.08;69.07
65718;BME280;52445;52.466;-1.016;2023-01-29T14:55:44;100744.34;;;9.10;69.15
65718;BME280;52445;52.466;-1.016;2023-01-29T14:58:23;100746.97;;;9.13;69.11
65718;BME280;52445;52.466;-1.016;2023-01-29T15:00:54;100728.06;;;9.17;69.29
65718;BME280;52445;52.466;-1.016;2023-01-29T15:03:43;100728.03;;;9.14;68.72
65718;BME280;52445;52.466;-1.016;2023-01-29T15:06:19;100724.63;;;9.18;69.36
65718;BME280;52445;52.466;-1.016;2023-01-29T15:08:59;100735.84;;;9.19;69.11
65718;BME280;52445;52.466;-1.016;2023-01-29T15:11:36;100726.38;;;9.19;69.11
65718;BME280;52445;52.466;-1.016;2023-01-29T15:14:15;100722.91;;;9.17;68.98
65718;BME280;52445;52.466;-1.016;2023-01-29T15:19:33;100709.97;;;9.16;69.00
65718;BME280;52445;52.466;-1.016;2023-01-29T15:22:06;100716.00;;;9.16;69.06
65718;BME280;52445;52.466;-1.016;2023-01-29T15:24:35;100720.34;;;9.19;69.13
65718;BME280;52445;52.466;-1.016;2023-01-29T15:27:03;100716.00;;;9.16;69.66
65718;BME280;52445;52.466;-1.016;2023-01-29T15:29:32;100707.34;;;9.14;68.99
65718;BME280;52445;52.466;-1.016;2023-01-29T15:32:00;100702.13;;;9.11;68.56
65718;BME280;52445;52.466;-1.016;2023-01-29T15:34:27;100703.84;;;9.09;68.99
65718;BME280;52445;52.466;-1.016;2023-01-29T15:36:53;100705.53;;;9.07;69.26
65718;BME280;52445;52.466;-1.016;2023-01-29T15:39:22;100707.25;;;9.05;69.14
65718;BME280;52445;52.466;-1.016;2023-01-29T15:42:03;100701.97;;;8.98;69.01
65718;BME280;52445;52.466;-1.016;2023-01-29T15:44:34;100697.66;;;8.97;68.96
65718;BME280;52445;52.466;-1.016;2023-01-29T15:47:01;100708.84;;;8.96;68.70